createdAt,value
2023-02-12T00:03:00.472Z,956.38
2023-02-12T00:06:03.992Z,941.38
2023-02-12T00:09:07.591Z,886.17
2023-02-12T00:12:10.869Z,923.13
2023-02-12T00:15:14.055Z,889.33
2023-02-12T00:18:18.630Z,906.72
2023-02-12T00:21:22.438Z,889.15
2023-02-12T00:24:25.738Z,939.63
2023-02-12T00:27:29.030Z,931.88
2023-02-12T00:30:32.484Z,906.72
2023-02-12T00:33:37.327Z,928.45
2023-02-12T00:36:40.457Z,880.40
2023-02-12T00:39:44.021Z,848.22
2023-02-12T00:42:47.518Z,727.20
2023-02-12T00:45:50.820Z,863.55
2023-02-12T00:48:55.462Z,866.78
2023-02-12T00:51:58.661Z,777.42
2023-02-12T00:55:02.080Z,788.00
2023-02-12T00:58:05.308Z,741.70
2023-02-12T01:01:09.416Z,737.50
2023-02-12T01:04:14.310Z,770.75
2023-02-12T01:07:17.499Z,834.90
2023-02-12T01:10:22.113Z,699.47
2023-02-12T01:13:25.874Z,702.75
2023-02-12T01:16:31.689Z,631.30
2023-02-12T01:19:36.634Z,739.70
2023-02-12T01:22:40.725Z,720.40
2023-02-12T01:25:44.013Z,703.58
2023-02-12T01:28:51.161Z,754.70
2023-02-12T01:31:54.520Z,825.88
2023-02-12T01:34:59.210Z,799.47
2023-02-12T01:38:02.441Z,849.88
2023-02-12T01:41:07.129Z,920.95
2023-02-12T01:44:18.438Z,898.40
2023-02-12T01:47:22.659Z,827.45
2023-02-12T01:50:28.109Z,800.75
2023-02-12T01:53:36.161Z,865.10
2023-02-12T01:56:40.249Z,820.00
2023-02-12T01:59:46.590Z,835.25
2023-02-12T02:02:58.775Z,788.08
2023-02-12T02:06:09.451Z,845.65
2023-02-12T02:09:15.254Z,857.10
2023-02-12T02:12:36.604Z,820.58
2023-02-12T02:15:43.477Z,859.65
2023-02-12T02:18:53.296Z,862.45
2023-02-12T02:22:27.815Z,896.67
2023-02-12T02:25:52.731Z,919.05
2023-02-12T02:29:11.578Z,917.55
2023-02-12T02:32:19.872Z,915.22
2023-02-12T02:35:29.735Z,928.33
2023-02-12T02:38:39.582Z,894.95
2023-02-12T02:41:49.851Z,890.45
2023-02-12T02:48:03.595Z,842.90
2023-02-12T02:51:12.540Z,864.42
2023-02-12T02:54:20.685Z,873.42
2023-02-12T02:57:29.293Z,857.70
2023-02-12T03:04:11.186Z,897.78
2023-02-12T03:07:18.851Z,875.20
2023-02-12T03:10:24.871Z,804.33
2023-02-12T03:13:33.456Z,767.70
2023-02-12T03:16:41.144Z,758.47
2023-02-12T03:19:51.948Z,741.53
2023-02-12T03:22:59.561Z,779.15
2023-02-12T03:26:07.132Z,712.78
2023-02-12T03:29:10.641Z,682.50
2023-02-12T03:32:25.124Z,692.63
2023-02-12T03:35:36.422Z,767.33
2023-02-12T03:38:45.286Z,740.33
2023-02-12T03:41:53.041Z,758.75
2023-02-12T03:45:02.286Z,718.47
2023-02-12T03:48:11.346Z,795.87
2023-02-12T03:51:22.722Z,700.33
2023-02-12T03:54:26.201Z,682.00
2023-02-12T03:57:34.238Z,702.63
2023-02-12T04:00:39.054Z,657.13
2023-02-12T04:03:42.769Z,673.28
2023-02-12T04:06:48.837Z,715.30
2023-02-12T04:09:52.018Z,711.45
2023-02-12T04:13:02.428Z,730.95
2023-02-12T04:19:22.107Z,689.42
2023-02-12T04:22:37.996Z,732.83
2023-02-12T04:25:51.632Z,758.72
2023-02-12T04:29:06.025Z,738.88
2023-02-12T04:32:16.056Z,698.35
2023-02-12T04:35:25.325Z,679.13
2023-02-12T04:38:36.007Z,712.08
2023-02-12T04:41:40.513Z,694.53
2023-02-12T04:44:44.865Z,733.90
2023-02-12T04:47:48.216Z,699.80
2023-02-12T04:50:51.392Z,715.13
2023-02-12T04:53:55.911Z,735.38
2023-02-12T04:56:59.058Z,730.45
2023-02-12T05:00:02.300Z,726.08
2023-02-12T05:03:05.830Z,672.72
2023-02-12T05:06:11.016Z,658.20
2023-02-12T05:09:17.608Z,669.75
2023-02-12T05:12:20.802Z,650.10
2023-02-12T05:15:24.374Z,666.50
2023-02-12T05:18:27.749Z,655.47
2023-02-12T05:21:31.042Z,673.25
2023-02-12T05:24:35.666Z,662.60
2023-02-12T05:27:38.838Z,659.88
2023-02-12T05:30:42.074Z,712.40
2023-02-12T05:33:45.558Z,681.45
2023-02-12T05:36:49.891Z,688.88
2023-02-12T05:39:55.063Z,743.83
2023-02-12T05:42:58.464Z,771.97
2023-02-12T05:46:02.420Z,699.80
2023-02-12T05:49:05.953Z,716.50
2023-02-12T05:52:09.340Z,702.35
2023-02-12T05:55:13.912Z,685.65
2023-02-12T05:58:17.141Z,647.58
2023-02-12T06:01:22.805Z,658.13
2023-02-12T06:04:27.950Z,707.67
2023-02-12T06:07:31.168Z,662.17
2023-02-12T06:10:35.690Z,671.95
2023-02-12T06:13:39.078Z,716.63
2023-02-12T06:16:42.677Z,766.88
2023-02-12T06:19:46.011Z,707.17
2023-02-12T06:22:49.210Z,716.53
2023-02-12T06:25:58.065Z,811.30
2023-02-12T06:29:02.583Z,806.90
2023-02-12T06:32:08.336Z,787.88
2023-02-12T06:35:11.634Z,795.13
2023-02-12T06:38:15.454Z,809.03
2023-02-12T06:41:20.173Z,882.17
2023-02-12T06:44:23.373Z,824.85
2023-02-12T06:47:26.596Z,859.22
2023-02-12T06:50:30.686Z,880.88
2023-02-12T06:53:34.807Z,791.35
2023-02-12T06:56:39.386Z,878.33
2023-02-12T06:59:42.564Z,870.72
2023-02-12T07:02:46.969Z,921.08
2023-02-12T07:05:51.872Z,960.85
2023-02-12T07:08:56.757Z,914.97
2023-02-12T07:12:01.483Z,879.78
2023-02-12T07:15:05.038Z,902.83
2023-02-12T07:18:08.284Z,897.25
2023-02-12T07:21:13.743Z,886.63
2023-02-12T07:24:18.306Z,862.80
2023-02-12T07:27:23.121Z,946.53
2023-02-12T07:30:29.172Z,847.30
2023-02-12T07:33:32.451Z,917.40
2023-02-12T07:36:37.297Z,897.47
2023-02-12T07:39:40.604Z,985.75
2023-02-12T07:42:46.089Z,959.03
2023-02-12T07:45:50.014Z,946.75
2023-02-12T07:48:54.201Z,950.35
2023-02-12T07:51:57.430Z,951.25
2023-02-12T07:55:00.907Z,946.40
2023-02-12T07:58:05.829Z,979.72
2023-02-12T08:01:18.055Z,982.92
2023-02-12T08:04:25.176Z,875.30
2023-02-12T08:07:28.752Z,844.55
2023-02-12T08:10:32.545Z,864.00
2023-02-12T08:13:38.740Z,906.30
2023-02-12T08:16:43.420Z,921.22
2023-02-12T08:19:46.657Z,830.80
2023-02-12T08:22:49.837Z,813.90
2023-02-12T08:25:53.183Z,702.78
2023-02-12T08:29:00.633Z,780.22
2023-02-12T08:32:06.369Z,793.25
2023-02-12T08:35:10.006Z,804.72
2023-02-12T08:38:13.168Z,866.88
2023-02-12T08:41:19.271Z,859.40
2023-02-12T08:44:26.332Z,852.83
2023-02-12T08:47:31.303Z,866.13
2023-02-12T08:50:35.815Z,912.88
2023-02-12T08:53:40.222Z,959.10
2023-02-12T08:56:45.179Z,989.60
2023-02-12T08:59:51.346Z,918.10
2023-02-12T09:02:54.596Z,997.35
2023-02-12T09:05:58.790Z,999.90
2023-02-12T09:09:02.451Z,968.78
2023-02-12T09:12:06.494Z,930.70
2023-02-12T09:15:11.301Z,969.50
2023-02-12T09:18:16.004Z,999.90
2023-02-12T09:21:20.008Z,978.13
2023-02-12T09:24:23.202Z,968.33
2023-02-12T09:27:26.468Z,939.15
2023-02-12T09:30:31.297Z,976.78
2023-02-12T09:33:34.572Z,843.90
2023-02-12T09:36:37.835Z,921.85
2023-02-12T09:39:41.154Z,948.05
2023-02-12T09:43:01.946Z,917.80
2023-02-12T09:46:17.702Z,963.28
2023-02-12T09:49:41.117Z,934.83
2023-02-12T09:52:45.830Z,995.65
2023-02-12T09:55:49.447Z,979.35
2023-02-12T09:58:56.249Z,884.15
2023-02-12T10:02:01.092Z,945.75
2023-02-12T10:05:05.933Z,965.22
2023-02-12T10:08:24.890Z,997.50
2023-02-12T10:11:46.983Z,941.60
2023-02-12T10:15:02.682Z,889.92
2023-02-12T10:18:23.036Z,945.28
2023-02-12T10:21:37.450Z,950.20
2023-02-12T10:25:01.359Z,945.05
2023-02-12T10:28:12.444Z,983.25
2023-02-12T10:31:31.441Z,937.80
2023-02-12T10:34:37.803Z,958.67
2023-02-12T10:37:46.697Z,899.33
2023-02-12T10:40:50.872Z,870.67
2023-02-12T10:43:54.284Z,859.65
2023-02-12T10:46:57.454Z,714.47
2023-02-12T10:50:15.899Z,813.75
2023-02-12T10:53:23.589Z,975.28
2023-02-12T10:56:27.351Z,965.60
2023-02-12T10:59:30.864Z,859.80
2023-02-12T11:02:36.080Z,898.55
2023-02-12T11:05:41.747Z,746.20
2023-02-12T11:08:45.908Z,633.50
2023-02-12T11:11:50.299Z,723.65
2023-02-12T11:14:55.220Z,616.63
2023-02-12T11:18:02.733Z,589.15
2023-02-12T11:21:10.366Z,586.40
2023-02-12T11:24:29.764Z,626.03
2023-02-12T11:27:33.027Z,630.55
2023-02-12T11:30:36.691Z,644.67
2023-02-12T11:33:40.322Z,709.80
2023-02-12T11:36:46.799Z,678.55
2023-02-12T11:39:52.023Z,643.08
2023-02-12T11:42:58.910Z,712.42
2023-02-12T11:46:02.257Z,677.55
2023-02-12T11:49:09.395Z,698.40
2023-02-12T11:52:22.690Z,677.67
2023-02-12T11:55:28.505Z,679.45
2023-02-12T11:58:31.727Z,739.30
2023-02-12T12:01:38.921Z,678.83
2023-02-12T12:04:45.078Z,724.50
2023-02-12T12:07:55.245Z,726.83
2023-02-12T12:11:05.226Z,930.42
2023-02-12T12:14:16.404Z,999.90
2023-02-12T12:17:37.506Z,999.90
2023-02-12T12:20:44.551Z,966.25
2023-02-12T12:23:56.475Z,976.70
2023-02-12T12:27:14.232Z,999.90
2023-02-12T12:30:23.515Z,999.08
2023-02-12T12:33:34.923Z,979.65
2023-02-12T12:36:57.453Z,950.63
2023-02-12T12:40:25.749Z,999.33
2023-02-12T12:43:45.011Z,999.90
2023-02-12T12:47:01.665Z,962.53
2023-02-12T12:50:22.785Z,856.70
2023-02-12T12:53:36.107Z,934.17
2023-02-12T12:56:50.680Z,789.08
2023-02-12T13:00:26.083Z,857.70
2023-02-12T13:04:05.613Z,843.60
2023-02-12T13:07:30.822Z,858.20
2023-02-12T13:10:38.761Z,934.85
2023-02-12T13:13:46.314Z,855.10
2023-02-12T13:16:55.585Z,946.83
2023-02-12T13:20:07.753Z,829.50
2023-02-12T13:23:16.273Z,868.92
2023-02-12T13:26:30.597Z,754.00
2023-02-12T13:29:38.223Z,799.63
2023-02-12T13:32:46.242Z,907.40
2023-02-12T13:35:55.152Z,770.30
2023-02-12T13:39:06.146Z,828.70
2023-02-12T13:42:22.999Z,817.30
2023-02-12T13:45:37.680Z,863.47
2023-02-12T13:48:54.199Z,932.08
2023-02-12T13:52:03.885Z,891.20
2023-02-12T13:55:22.814Z,736.53
2023-02-12T13:58:50.287Z,864.42
2023-02-12T14:01:55.368Z,988.38
2023-02-12T14:05:01.075Z,999.90
2023-02-12T14:08:08.132Z,996.25
2023-02-12T14:11:14.958Z,993.83
2023-02-12T14:14:27.633Z,999.90
2023-02-12T14:17:56.228Z,979.72
2023-02-12T14:21:45.561Z,935.13
2023-02-12T14:24:53.731Z,957.28
2023-02-12T14:28:00.684Z,961.92
2023-02-12T14:31:43.810Z,976.40
2023-02-12T14:34:49.593Z,891.33
2023-02-12T14:37:53.327Z,837.90
2023-02-12T14:41:36.479Z,780.22
2023-02-12T14:44:46.328Z,952.55
2023-02-12T14:47:55.538Z,822.42
2023-02-12T14:51:03.587Z,999.90
2023-02-12T14:54:16.024Z,891.70
2023-02-12T14:57:26.971Z,999.90
2023-02-12T15:00:36.018Z,979.13
2023-02-12T15:03:44.365Z,899.60
2023-02-12T15:06:54.966Z,868.70
2023-02-12T15:10:07.443Z,875.10
2023-02-12T15:13:21.204Z,907.00
2023-02-12T15:16:33.264Z,917.35
2023-02-12T15:19:42.773Z,901.45
2023-02-12T15:22:47.907Z,887.50
2023-02-12T15:25:52.313Z,902.38
2023-02-12T15:28:56.198Z,910.97
2023-02-12T15:32:04.061Z,949.80
2023-02-12T15:35:08.197Z,967.47
2023-02-12T15:38:21.781Z,909.03
2023-02-12T15:41:30.976Z,906.83
2023-02-12T15:44:35.827Z,967.28
2023-02-12T15:47:39.790Z,982.88
2023-02-12T15:50:53.585Z,999.90
2023-02-12T15:54:00.682Z,999.90
2023-02-12T15:57:11.719Z,994.97
2023-02-12T16:00:28.864Z,970.60
2023-02-12T16:03:34.069Z,988.47
2023-02-12T16:06:38.015Z,955.95
2023-02-12T16:09:44.020Z,907.17
2023-02-12T16:12:48.506Z,916.85
2023-02-12T16:16:06.220Z,916.95
2023-02-12T16:19:20.839Z,895.70
2023-02-12T16:22:31.907Z,861.08
2023-02-12T16:25:37.764Z,851.08
2023-02-12T16:28:41.579Z,882.85
2023-02-12T16:31:56.283Z,859.15
2023-02-12T16:35:01.711Z,787.08
2023-02-12T16:38:42.153Z,807.70
2023-02-12T16:41:56.976Z,760.67
2023-02-12T16:45:00.504Z,731.35
2023-02-12T16:48:10.035Z,787.78
2023-02-12T16:51:25.638Z,784.65
2023-02-12T16:54:32.762Z,790.20
2023-02-12T16:57:37.843Z,833.85
2023-02-12T17:00:42.708Z,840.25
2023-02-12T17:03:47.770Z,869.80
2023-02-12T17:06:51.341Z,762.30
2023-02-12T17:09:54.791Z,759.20
2023-02-12T17:13:01.231Z,811.17
2023-02-12T17:16:06.881Z,741.55
2023-02-12T17:19:13.366Z,637.28
2023-02-12T17:22:25.467Z,745.70
2023-02-12T17:25:32.207Z,812.90
2023-02-12T17:28:37.714Z,860.25
2023-02-12T17:31:41.400Z,778.63
2023-02-12T17:34:49.281Z,784.25
2023-02-12T17:37:56.608Z,848.95
2023-02-12T17:41:00.204Z,866.08
2023-02-12T17:44:06.223Z,818.15
2023-02-12T17:47:09.839Z,779.78
2023-02-12T17:50:18.827Z,745.47
2023-02-12T17:53:23.063Z,505.63
2023-02-12T17:56:26.751Z,830.78
2023-02-12T17:59:31.783Z,892.80
2023-02-12T18:02:35.203Z,885.55
2023-02-12T18:05:43.366Z,905.72
2023-02-12T18:08:47.855Z,896.78
2023-02-12T18:11:51.341Z,841.90
2023-02-12T18:15:02.717Z,862.28
2023-02-12T18:18:06.117Z,882.63
2023-02-12T18:21:11.533Z,841.53
2023-02-12T18:24:15.435Z,853.58
2023-02-12T18:27:19.683Z,820.25
2023-02-12T18:30:25.250Z,836.92
2023-02-12T18:33:29.704Z,866.03
2023-02-12T18:36:33.469Z,864.72
2023-02-12T18:39:36.842Z,764.80
2023-02-12T18:42:40.137Z,612.53
2023-02-12T18:45:45.049Z,660.40
2023-02-12T18:48:49.190Z,771.80
2023-02-12T18:51:52.791Z,744.80
2023-02-12T18:54:56.816Z,735.72
2023-02-12T18:58:00.618Z,642.15
2023-02-12T19:01:14.152Z,595.05
2023-02-12T19:04:18.760Z,614.42
2023-02-12T19:07:27.217Z,683.05
2023-02-12T19:10:33.726Z,680.70
2023-02-12T19:13:37.821Z,620.33
2023-02-12T19:16:42.636Z,723.25
2023-02-12T19:19:46.176Z,784.20
2023-02-12T19:22:52.888Z,814.28
2023-02-12T19:25:56.306Z,842.90
2023-02-12T19:28:59.999Z,879.45
2023-02-12T19:32:05.303Z,879.17
2023-02-12T19:35:09.444Z,873.15
2023-02-12T19:38:12.788Z,878.15
2023-02-12T19:41:18.785Z,834.50
2023-02-12T19:44:24.913Z,841.40
2023-02-12T19:47:29.685Z,909.17
2023-02-12T19:50:35.268Z,999.90
2023-02-12T19:53:38.778Z,864.42
2023-02-12T19:56:43.106Z,972.83
2023-02-12T19:59:47.597Z,806.45
2023-02-12T20:02:54.325Z,817.70
2023-02-12T20:06:02.658Z,836.28
2023-02-12T20:09:07.846Z,951.63
2023-02-12T20:12:11.215Z,920.25
2023-02-12T20:15:17.554Z,803.47
2023-02-12T20:18:23.266Z,848.03
2023-02-12T20:21:29.755Z,806.30
2023-02-12T20:24:40.006Z,640.30
2023-02-12T20:27:43.748Z,854.63
2023-02-12T20:30:48.729Z,719.83
2023-02-12T20:33:57.696Z,774.92
2023-02-12T20:37:01.224Z,857.22
2023-02-12T20:40:05.512Z,645.50
2023-02-12T20:43:11.850Z,733.13
2023-02-12T20:46:20.019Z,767.60
2023-02-12T20:49:31.306Z,849.88
2023-02-12T20:52:34.770Z,867.55
2023-02-12T20:55:38.248Z,879.17
2023-02-12T20:58:46.390Z,855.72
2023-02-12T21:01:50.212Z,770.88
2023-02-12T21:04:56.113Z,727.92
2023-02-12T21:07:59.540Z,706.03
2023-02-12T21:11:05.562Z,830.35
2023-02-12T21:14:21.735Z,767.95
2023-02-12T21:17:27.680Z,790.30
2023-02-12T21:20:32.393Z,839.80
2023-02-12T21:23:36.753Z,921.90
2023-02-12T21:26:45.175Z,874.30
2023-02-12T21:29:51.416Z,999.90
2023-02-12T21:32:54.848Z,799.28
2023-02-12T21:36:00.382Z,776.47
2023-02-12T21:39:05.251Z,928.08
2023-02-12T21:42:09.663Z,888.85
2023-02-12T21:45:20.498Z,759.85
2023-02-12T21:48:23.916Z,883.55
2023-02-12T21:51:30.870Z,843.08
2023-02-12T21:54:34.661Z,936.88
2023-02-12T21:57:38.644Z,853.35
2023-02-12T22:00:42.554Z,926.08
2023-02-12T22:03:46.303Z,848.75
2023-02-12T22:06:54.011Z,883.72
2023-02-12T22:09:57.489Z,885.90
2023-02-12T22:13:01.268Z,884.05
2023-02-12T22:16:12.170Z,913.83
2023-02-12T22:19:15.498Z,878.60
2023-02-12T22:22:20.329Z,946.67
2023-02-12T22:25:24.204Z,896.20
2023-02-12T22:28:27.599Z,883.25
2023-02-12T22:31:32.906Z,895.45
2023-02-12T22:34:36.353Z,905.83
2023-02-12T22:38:44.279Z,856.13
2023-02-12T22:41:49.078Z,999.90
2023-02-12T22:44:52.330Z,981.45
2023-02-12T22:47:55.582Z,999.90
2023-02-12T22:51:00.101Z,949.85
2023-02-12T22:54:04.019Z,965.63
2023-02-12T22:57:08.600Z,996.20
2023-02-12T23:00:12.696Z,999.90
2023-02-12T23:03:16.124Z,962.75
2023-02-12T23:06:22.153Z,999.90
2023-02-12T23:09:25.394Z,914.35
2023-02-12T23:12:30.026Z,949.97
2023-02-12T23:15:33.239Z,945.53
2023-02-12T23:18:36.419Z,879.58
2023-02-12T23:21:39.992Z,946.38
2023-02-12T23:24:43.272Z,988.72
2023-02-12T23:27:47.920Z,991.42
2023-02-12T23:30:52.486Z,974.03
2023-02-12T23:33:55.739Z,937.72
2023-02-12T23:36:58.964Z,919.58
2023-02-12T23:40:02.165Z,999.90
2023-02-12T23:43:06.764Z,958.22
2023-02-12T23:46:10.239Z,908.10
2023-02-12T23:49:13.693Z,881.60
2023-02-12T23:52:16.937Z,925.70
2023-02-12T23:55:20.543Z,981.85
2023-02-12T23:58:25.157Z,926.97
